Terminal Aerodrome Forecast
Issued by NWS

Home | Current Version | Previous Version | Text Only | Print | Product List | Glossary On
Versions: 1 2 3 4 5 6 7 8 9 10 11 12 13 14 15 16 17 18 19 20 21 22 23 24 25 26
000
FTAK31 PAFA 231130
TAFAFA
TAF
PAFA 231130Z 2312/2418 VRB03KT P6SM IC FEW005 FEW090 SCT120
     FM231400 VRB03KT P6SM SKC
     FM240000 04004KT P6SM SCT080 BKN180
     FM241200 04004KT P6SM -SN SCT050 BKN100 OVC200=

USA.gov is the U.S. government's official web portal to all federal, state and local government web resources and services.